Time;durP1;ratioP1;P1;durP2;ratioP2;P2;SDS_P1;SDS_P2;PMS_P1;PMS_P2;Temp;Humidity;BMP_temperature;BMP_pressure;BME280_temperature;BME280_humidity;BME280_pressure;Samples;Min_cycle;Max_cycle;Signal;HPM_P1;HPM_P2
2021/08/26 06:25:34;;;;;;;5.30;4.07;;;;;;;26.31;49.60;94222.75;5328051;23;98794;-69
2021/08/26 06:28:00;;;;;;;10.02;4.68;;;;;;;26.32;50.77;94221.53;4848097;29;99251;-68
2021/08/26 06:30:26;;;;;;;15.85;5.10;;;;;;;26.40;50.53;94215.75;4839239;29;99601;-68
2021/08/26 06:32:51;;;;;;;7.47;4.45;;;;;;;26.43;50.57;94210.09;4855019;29;96930;-67
2021/08/26 06:35:17;;;;;;;10.18;5.10;;;;;;;26.49;51.31;94204.75;4858346;29;96914;-68
2021/08/26 06:37:42;;;;;;;8.40;4.70;;;;;;;26.48;50.96;94181.06;4857639;28;99958;-66
2021/08/26 06:40:09;;;;;;;7.95;4.53;;;;;;;26.50;51.38;94159.22;4857436;29;99546;-71
2021/08/26 06:42:34;;;;;;;16.63;5.00;;;;;;;26.44;52.03;94163.78;4856848;29;96914;-69
2021/08/26 06:45:00;;;;;;;8.38;4.72;;;;;;;26.51;51.25;94185.69;4856829;28;97285;-73
2021/08/26 06:47:25;;;;;;;10.00;4.43;;;;;;;26.44;46.70;94191.47;4857683;28;99222;-72
2021/08/26 06:49:51;;;;;;;29.80;25.65;;;;;;;26.47;48.03;94201.66;4857508;28;97879;-68
2021/08/26 06:52:16;;;;;;;14.05;9.23;;;;;;;26.46;49.23;94195.34;4857179;29;96793;-67
2021/08/26 06:54:42;;;;;;;10.13;6.68;;;;;;;26.45;49.80;94198.56;4857551;29;96997;-68
2021/08/26 06:57:07;;;;;;;11.25;7.18;;;;;;;26.45;50.11;94195.78;4855107;28;99672;-67
2021/08/26 06:59:33;;;;;;;15.27;8.90;;;;;;;26.43;49.95;94185.19;4856758;29;99093;-68
2021/08/26 07:01:58;;;;;;;10.05;6.45;;;;;;;26.41;49.77;94187.63;4857215;28;96662;-66
2021/08/26 07:04:24;;;;;;;12.30;6.55;;;;;;;26.42;49.55;94189.16;4855650;29;97109;-67
2021/08/26 07:06:53;;;;;;;9.73;6.60;;;;;;;26.37;49.52;94184.22;4854113;29;99659;-66
2021/08/26 07:09:19;;;;;;;8.27;6.60;;;;;;;26.42;49.34;94188.38;4854729;29;99435;-67
2021/08/26 07:11:44;;;;;;;9.13;6.25;;;;;;;26.42;49.89;94199.47;4855220;29;97039;-68
2021/08/26 07:14:10;;;;;;;8.38;5.82;;;;;;;26.41;49.32;94197.91;4855201;29;97011;-67
2021/08/26 07:16:35;;;;;;;9.98;6.40;;;;;;;26.39;49.51;94194.81;4855757;29;99804;-67
2021/08/26 07:19:00;;;;;;;8.20;5.90;;;;;;;26.46;49.46;94202.88;4855725;29;97358;-67
2021/08/26 07:21:26;;;;;;;8.48;5.88;;;;;;;26.48;49.36;94203.19;4857115;29;96723;-66
2021/08/26 07:23:51;;;;;;;7.47;5.97;;;;;;;26.51;48.97;94202.31;4857611;29;97092;-67
2021/08/26 07:26:19;;;;;;;7.00;5.88;;;;;;;26.54;48.88;94206.16;4841530;29;99468;-68
2021/08/26 07:28:44;;;;;;;7.75;5.53;;;;;;;26.57;49.05;94188.66;4838436;29;99313;-68
2021/08/26 07:31:10;;;;;;;7.47;5.28;;;;;;;26.58;48.89;94179.13;4837979;29;96927;-68
2021/08/26 07:33:35;;;;;;;7.00;5.88;;;;;;;26.61;48.53;94176.22;4838695;29;97015;-71
2021/08/26 07:36:02;;;;;;;7.05;5.68;;;;;;;26.61;48.40;94180.97;4837704;29;99536;-68
2021/08/26 07:38:28;;;;;;;8.98;5.70;;;;;;;26.66;48.80;94196.28;4837526;29;96951;-70
2021/08/26 07:40:53;;;;;;;8.18;5.72;;;;;;;26.68;48.56;94204.91;4821714;29;97039;-72
2021/08/26 07:43:19;;;;;;;6.63;5.55;;;;;;;26.69;48.53;94200.91;4838352;29;96970;-68
2021/08/26 07:45:44;;;;;;;7.95;5.22;;;;;;;26.71;48.24;94192.91;4837864;29;99564;-69
2021/08/26 07:48:10;;;;;;;6.82;5.60;;;;;;;26.71;48.25;94188.13;4838361;29;99128;-68
2021/08/26 07:50:35;;;;;;;5.95;4.93;;;;;;;26.73;47.97;94201.56;4838242;29;96753;-68
2021/08/26 07:53:01;;;;;;;5.85;4.90;;;;;;;26.73;47.89;94198.78;4838282;29;96926;-70
2021/08/26 07:55:26;;;;;;;6.90;5.30;;;;;;;26.67;47.97;94198.56;4837513;29;99769;-68
2021/08/26 07:57:51;;;;;;;7.82;5.45;;;;;;;26.58;47.98;94207.59;4837840;29;99370;-71
2021/08/26 08:00:17;;;;;;;8.95;5.28;;;;;;;26.67;47.69;94203.34;4838040;29;96767;-68
2021/08/26 08:02:42;;;;;;;7.55;4.88;;;;;;;26.62;48.10;94208.25;4838147;29;96902;-68
2021/08/26 08:05:09;;;;;;;8.40;5.35;;;;;;;26.53;49.34;94199.84;4837805;29;99966;-72
2021/08/26 09:11:30;;;;;;;14.55;9.40;;;;;;;24.70;41.52;94202.31;5054494;27;96547;-66
2021/08/26 09:13:56;;;;;;;13.38;9.30;;;;;;;24.40;40.42;94204.31;5034930;27;96786;-67
2021/08/26 09:16:36;;;;;;;13.20;9.00;;;;;;;24.36;39.43;94200.88;5033915;27;100136;-67
2021/08/26 09:19:24;;;;;;;11.52;7.63;;;;;;;24.63;40.24;94183.19;5052409;27;98115;-68
2021/08/26 09:21:50;;;;;;;12.05;8.30;;;;;;;24.79;40.66;94188.69;5048164;27;97493;-66
2021/08/26 09:24:15;;;;;;;12.27;8.38;;;;;;;24.91;41.75;94181.63;5041482;27;97012;-66
2021/08/26 09:26:42;;;;;;;11.02;7.97;;;;;;;25.05;41.90;94191.47;5031629;28;100062;-66
2021/08/26 09:29:10;;;;;;;10.23;7.53;;;;;;;25.16;41.70;94189.16;5014056;28;99261;-67
2021/08/26 09:31:35;;;;;;;13.43;7.43;;;;;;;25.30;41.78;94199.03;5032424;28;96752;-67
2021/08/26 09:34:04;;;;;;;10.60;7.25;;;;;;;25.45;42.37;94199.41;5032443;28;96942;-68
2021/08/26 09:36:34;;;;;;;9.90;7.40;;;;;;;25.57;43.30;94188.78;5031422;28;99595;-74
2021/08/26 09:39:01;;;;;;;13.57;10.43;;;;;;;25.65;44.04;94187.31;5031596;28;99810;-67
2021/08/26 09:41:38;;;;;;;18.00;13.38;;;;;;;25.78;45.07;94194.81;5031267;28;96881;-66
2021/08/26 09:44:04;;;;;;;22.98;20.33;;;;;;;25.85;45.84;94202.91;5031651;28;96893;-69
2021/08/26 09:46:31;;;;;;;53.03;43.78;;;;;;;25.92;45.61;94205.44;5030671;28;100405;-68
2021/08/26 09:49:03;;;;;;;75.07;41.28;;;;;;;25.97;45.98;94207.63;5030738;28;99415;-69
2021/08/26 09:51:29;;;;;;;66.05;30.13;;;;;;;26.09;46.90;94205.31;5031132;28;96858;-70
2021/08/26 09:53:55;;;;;;;65.70;29.85;;;;;;;26.14;46.47;94205.53;5031175;28;97052;-72
2021/08/26 09:56:20;;;;;;;56.67;26.40;;;;;;;26.23;47.00;94207.59;5030816;28;99999;-73
2021/08/26 09:58:46;;;;;;;56.55;28.00;;;;;;;26.28;46.98;94201.50;5030716;28;99736;-69
2021/08/26 10:01:18;;;;;;;58.00;24.90;;;;;;;26.34;46.47;94204.47;4992662;28;97114;-70
2021/08/26 10:03:44;;;;;;;;;;;;;;;26.40;46.96;94201.91;5011567;28;96779;-69
2021/08/26 10:06:13;;;;;;;46.85;22.65;;;;;;;26.33;47.56;94202.94;5011139;28;98989;-71
2021/08/26 10:08:40;;;;;;;49.03;23.33;;;;;;;26.39;47.65;94200.34;5010562;28;99664;-68
2021/08/26 10:11:05;;;;;;;42.25;21.65;;;;;;;26.39;47.84;94190.06;5004850;28;96934;-72
2021/08/26 10:13:31;;;;;;;43.78;20.17;;;;;;;26.43;48.46;94189.94;4979612;28;97039;-71
2021/08/26 10:15:57;;;;;;;39.63;20.83;;;;;;;26.42;48.27;94186.41;4996860;28;100059;-69
2021/08/26 10:18:22;;;;;;;40.33;19.60;;;;;;;26.45;48.88;94199.34;4997006;28;99424;-70
2021/08/26 10:20:48;;;;;;;34.42;18.65;;;;;;;26.46;49.44;94194.56;4995836;28;96800;-71
2021/08/26 10:23:13;;;;;;;39.50;17.63;;;;;;;26.47;49.25;94196.13;4992050;28;96969;-69
2021/08/26 10:25:43;;;;;;;30.45;14.63;;;;;;;26.51;49.14;94190.44;4975526;28;99414;-70
2021/08/26 10:28:09;;;;;;;24.67;13.05;;;;;;;26.54;48.77;94172.94;4993187;28;99855;-71
2021/08/26 10:30:36;;;;;;;27.42;14.32;;;;;;;26.59;48.45;94181.44;4994884;28;97100;-70
2021/08/26 10:33:06;;;;;;;26.10;12.70;;;;;;;26.62;48.31;94180.53;4994895;28;97236;-69
2021/08/26 10:35:31;;;;;;;28.38;14.40;;;;;;;26.68;48.37;94182.75;4994396;28;99441;-69
2021/08/26 10:37:57;;;;;;;26.00;13.13;;;;;;;26.74;48.24;94180.94;4995785;28;99062;-70
2021/08/26 10:40:25;;;;;;;28.60;14.65;;;;;;;26.76;48.23;94184.03;4997530;28;96657;-70
2021/08/26 10:42:51;;;;;;;27.90;14.65;;;;;;;26.78;47.83;94176.03;4997300;28;97080;-69
2021/08/26 10:45:22;;;;;;;29.50;14.77;;;;;;;26.79;47.85;94172.03;4995475;28;99487;-68
2021/08/26 10:47:47;;;;;;;26.35;14.13;;;;;;;26.82;47.98;94176.69;4996691;28;99804;-67
2021/08/26 10:50:16;;;;;;;25.73;12.93;;;;;;;26.85;47.79;94180.56;4997216;28;96697;-66
2021/08/26 10:52:55;;;;;;;24.17;13.32;;;;;;;26.86;48.56;94182.88;4996516;28;97297;-70
2021/08/26 10:55:39;;;;;;;27.65;14.57;;;;;;;26.87;48.09;94184.41;4996289;28;100921;-65
2021/08/26 10:58:23;;;;;;;46.65;34.22;;;;;;;26.88;48.66;94174.88;4995320;28;99113;-69
2021/08/26 11:00:54;;;;;;;30.90;24.40;;;;;;;26.86;47.62;94193.19;4996365;28;96693;-78
2021/08/26 11:03:31;;;;;;;37.90;32.58;;;;;;;26.90;47.97;94189.06;4996920;28;96929;-66
2021/08/26 11:05:57;;;;;;;29.42;22.20;;;;;;;26.91;47.72;94185.06;4996049;28;100421;-68
2021/08/26 11:08:27;;;;;;;29.65;22.58;;;;;;;26.95;47.83;94173.06;4994673;28;99171;-65
2021/08/26 11:10:53;;;;;;;31.23;20.73;;;;;;;26.96;47.78;94169.06;4996577;28;96967;-65
2021/08/26 11:13:35;;;;;;;26.92;22.48;;;;;;;26.98;47.81;94163.84;4996696;28;96882;-68
2021/08/26 11:16:25;;;;;;;27.65;21.70;;;;;;;27.01;47.69;94149.09;4996123;28;99479;-70
2021/08/26 11:18:50;;;;;;;36.10;27.88;;;;;;;27.00;48.20;94153.88;4995851;28;99601;-72
2021/08/26 11:24:30;;;;;;;27.20;20.05;;;;;;;26.61;47.21;94140.22;4993302;28;96748;-68
2021/08/26 11:27:14;;;;;;;24.27;18.60;;;;;;;26.33;45.58;94131.72;4998610;28;99799;-72
2021/08/26 11:29:40;;;;;;;23.92;17.02;;;;;;;25.84;45.01;94129.44;5010406;28;98810;-68
2021/08/26 11:32:06;;;;;;;24.38;17.27;;;;;;;25.56;44.09;94124.41;5016254;28;96850;-68
2021/08/26 11:34:37;;;;;;;24.25;17.70;;;;;;;25.21;43.09;94129.03;4998806;28;97120;-68
2021/08/26 11:37:28;;;;;;;21.33;16.55;;;;;;;24.96;43.09;94130.59;5016184;28;98151;-68
2021/08/26 11:40:10;;;;;;;24.98;16.52;;;;;;;24.71;42.18;94126.56;5015906;28;99496;-68
2021/08/26 11:42:42;;;;;;;22.98;16.13;;;;;;;24.68;40.72;94121.91;4998360;28;96801;-72
2021/08/26 11:45:31;;;;;;;22.40;15.75;;;;;;;24.54;39.64;94117.56;5016574;28;96933;-68
2021/08/26 11:48:01;;;;;;;22.30;15.52;;;;;;;24.42;39.33;94110.81;5015969;28;99414;-70
2021/08/26 11:50:32;;;;;;;23.77;15.98;;;;;;;24.31;38.73;94104.81;4997821;28;97740;-69
2021/08/26 11:52:59;;;;;;;24.30;17.38;;;;;;;24.30;38.32;94086.72;5016343;28;96686;-68
2021/08/26 11:55:26;;;;;;;46.53;41.58;;;;;;;24.19;38.71;94087.78;5016195;28;96944;-68
2021/08/26 11:57:58;;;;;;;38.95;34.85;;;;;;;24.28;37.70;94089.91;4981262;28;101781;-68
2021/08/26 12:00:24;;;;;;;36.20;31.30;;;;;;;24.25;37.49;94086.03;5015276;28;98827;-69
2021/08/26 12:03:02;;;;;;;36.13;30.02;;;;;;;24.23;36.77;94093.97;4981716;28;96759;-68
2021/08/26 12:05:27;;;;;;;32.05;28.70;;;;;;;24.25;36.52;94101.81;5016123;28;96805;-68
2021/08/26 12:07:54;;;;;;;33.72;28.95;;;;;;;24.20;35.82;94089.34;4980611;28;97641;-68
2021/08/26 12:10:31;;;;;;;32.00;27.10;;;;;;;24.02;35.71;94069.72;5015027;28;99372;-68
2021/08/26 12:13:00;;;;;;;28.55;25.55;;;;;;;23.97;35.84;94066.25;5015969;28;96814;-69
2021/08/26 12:15:49;;;;;;;30.35;26.55;;;;;;;23.91;35.48;94067.25;5015766;28;96903;-69
2021/08/26 12:18:32;;;;;;;29.05;25.95;;;;;;;23.82;35.21;94076.16;5015371;28;100123;-69
2021/08/26 12:21:07;;;;;;;28.30;25.30;;;;;;;23.77;35.34;94060.91;4997400;28;99283;-67
2021/08/26 12:23:33;;;;;;;29.15;24.42;;;;;;;23.62;35.34;94057.75;5015855;28;96744;-68
2021/08/26 12:26:05;;;;;;;27.35;23.83;;;;;;;23.61;34.97;94056.19;4997778;28;96951;-68
2021/08/26 12:28:31;;;;;;;27.73;23.48;;;;;;;23.51;35.26;94057.25;5015120;28;99702;-68
2021/08/26 12:30:57;;;;;;;27.25;23.52;;;;;;;23.41;35.04;94052.78;5015521;28;97695;-70
2021/08/26 12:33:22;;;;;;;27.05;22.95;;;;;;;23.49;34.81;94048.63;5015522;28;96818;-68
2021/08/26 12:35:52;;;;;;;27.73;21.45;;;;;;;23.37;35.13;94042.59;5015448;28;96968;-69
2021/08/26 12:38:31;;;;;;;25.77;22.30;;;;;;;23.36;35.02;94046.56;5015199;28;100038;-68
2021/08/26 12:40:58;;;;;;;25.00;21.70;;;;;;;23.25;35.13;94029.56;5015147;28;99196;-70
2021/08/26 12:43:25;;;;;;;26.17;22.50;;;;;;;23.20;34.82;94021.78;5015505;28;96581;-68
2021/08/26 12:46:11;;;;;;;25.02;20.67;;;;;;;23.20;34.76;94016.28;5015354;28;96952;-68
2021/08/26 12:48:38;;;;;;;23.25;20.33;;;;;;;23.14;35.14;94018.00;5014621;28;99788;-69
2021/08/26 12:51:09;;;;;;;23.33;20.42;;;;;;;23.14;34.72;94009.72;5014841;28;99396;-70
2021/08/26 12:53:35;;;;;;;23.15;19.60;;;;;;;22.99;35.27;94004.56;5015453;28;96720;-69
2021/08/26 12:56:03;;;;;;;22.80;20.23;;;;;;;23.08;34.53;94020.47;5015447;28;96946;-70
2021/08/26 12:58:28;;;;;;;24.27;19.77;;;;;;;23.08;34.51;94018.50;5014773;28;99182;-68
2021/08/26 13:00:55;;;;;;;24.98;20.02;;;;;;;23.21;34.49;94015.06;5014550;28;99488;-68
2021/08/26 13:03:21;;;;;;;22.63;19.17;;;;;;;23.20;34.56;94005.25;5015413;28;96688;-69
2021/08/26 13:05:50;;;;;;;23.60;19.23;;;;;;;23.30;34.16;93993.19;5015316;28;96914;-69
2021/08/26 13:08:18;;;;;;;21.95;17.90;;;;;;;23.30;34.37;93990.44;5014398;28;99673;-68
2021/08/26 13:10:45;;;;;;;22.83;18.73;;;;;;;23.28;34.66;93995.59;5014124;28;99441;-70
2021/08/26 13:13:17;;;;;;;23.98;19.45;;;;;;;23.30;34.34;93997.94;5015266;28;96714;-69
2021/08/26 13:15:43;;;;;;;;;;;;;;;23.22;34.58;93997.34;5015621;28;97174;-68
2021/08/26 13:18:08;;;;;;;20.88;16.70;;;;;;;23.16;34.43;94007.31;5015167;28;99876;-68
2021/08/26 13:20:37;;;;;;;20.25;17.02;;;;;;;23.16;34.59;94010.06;4980035;28;100869;-68
2021/08/26 13:23:06;;;;;;;22.67;18.02;;;;;;;23.16;34.39;94016.34;5014502;28;96789;-67
2021/08/26 13:25:32;;;;;;;20.65;16.55;;;;;;;23.20;33.89;94008.78;5014655;28;98593;-68
2021/08/26 13:27:57;;;;;;;19.88;17.02;;;;;;;23.20;34.08;94005.25;5014083;28;99101;-68
2021/08/26 13:30:23;;;;;;;19.20;16.40;;;;;;;23.32;33.78;94001.81;5013882;28;99891;-68
2021/08/26 13:32:48;;;;;;;19.17;16.55;;;;;;;23.26;33.81;94003.53;5014292;28;96833;-68
2021/08/26 13:35:14;;;;;;;19.70;15.75;;;;;;;23.29;33.86;94005.41;5014577;28;96969;-68
2021/08/26 13:37:41;;;;;;;22.58;16.13;;;;;;;23.10;34.18;93996.03;5013852;28;98541;-68
2021/08/26 13:40:07;;;;;;;19.55;16.75;;;;;;;23.18;34.18;94002.16;5013808;28;99252;-68
2021/08/26 13:42:33;;;;;;;19.42;16.17;;;;;;;23.14;33.92;94009.72;5014680;28;97530;-69
2021/08/26 13:44:58;;;;;;;20.02;16.15;;;;;;;23.18;33.84;94010.41;5014490;28;96961;-70
2021/08/26 13:47:24;;;;;;;17.95;15.43;;;;;;;23.17;34.06;94022.63;5016576;28;99549;-68
2021/08/26 13:49:49;;;;;;;19.55;15.55;;;;;;;22.99;34.34;94029.34;5017516;28;99572;-68
2021/08/26 13:52:15;;;;;;;19.08;15.57;;;;;;;22.99;34.08;94012.81;5017698;28;96912;-70
2021/08/26 13:54:40;;;;;;;18.13;15.18;;;;;;;22.95;34.25;94023.16;5017719;28;96922;-68
2021/08/26 13:57:05;;;;;;;17.73;15.00;;;;;;;22.95;34.12;94025.91;5016948;28;99183;-69
2021/08/26 13:59:31;;;;;;;19.88;14.88;;;;;;;23.04;33.97;94020.56;5016999;28;99485;-68
2021/08/26 14:01:56;;;;;;;16.77;13.93;;;;;;;22.87;34.20;94022.56;5017630;28;96712;-68
2021/08/26 14:04:22;;;;;;;17.38;14.52;;;;;;;22.82;34.30;94011.25;5017648;28;96964;-68
2021/08/26 14:06:49;;;;;;;17.33;14.70;;;;;;;22.80;34.44;94006.97;5016756;28;97765;-68
2021/08/26 14:09:15;;;;;;;15.98;13.35;;;;;;;22.83;34.19;94016.34;5016506;28;99120;-68
2021/08/26 14:11:40;;;;;;;18.33;13.65;;;;;;;22.75;34.20;94015.72;5017582;28;96637;-68
2021/08/26 14:14:06;;;;;;;16.33;13.50;;;;;;;22.78;33.98;94014.88;5017586;28;96932;-68
2021/08/26 14:16:31;;;;;;;16.65;13.30;;;;;;;22.61;34.38;94027.84;5016775;28;99510;-68
2021/08/26 14:18:57;;;;;;;17.10;13.52;;;;;;;22.73;34.18;94040.16;5016921;28;98666;-68
2021/08/26 14:21:22;;;;;;;16.52;13.35;;;;;;;22.75;34.40;94037.75;5016982;28;96683;-69
2021/08/26 14:23:48;;;;;;;14.82;12.82;;;;;;;22.80;33.96;94034.50;5017120;28;96903;-68
2021/08/26 14:26:13;;;;;;;15.63;13.32;;;;;;;22.71;33.90;94028.78;5016781;28;99557;-69
2021/08/26 14:28:39;;;;;;;17.33;13.98;;;;;;;22.70;34.08;94021.75;5016780;28;98461;-69
2021/08/26 14:31:04;;;;;;;16.92;12.98;;;;;;;22.64;33.98;94026.22;5017144;28;96616;-68
2021/08/26 14:33:30;;;;;;;15.93;12.18;;;;;;;22.57;34.05;94010.63;5016999;28;96928;-69
2021/08/26 14:35:55;;;;;;;16.23;12.57;;;;;;;22.59;34.34;94007.47;5016519;28;99954;-69
2021/08/26 14:38:21;;;;;;;16.42;12.50;;;;;;;22.71;33.92;94009.53;5016596;28;100209;-68
2021/08/26 14:40:46;;;;;;;17.35;13.25;;;;;;;22.63;34.07;94002.66;5016872;28;96779;-69
2021/08/26 14:43:12;;;;;;;13.55;11.50;;;;;;;22.60;33.88;93992.50;5017369;28;97637;-69
2021/08/26 14:45:37;;;;;;;14.73;11.85;;;;;;;22.66;34.00;93988.03;5016067;28;99104;-69
2021/08/26 14:48:05;;;;;;;14.73;11.38;;;;;;;22.49;33.99;93988.03;5016542;28;99643;-69
2021/08/26 14:50:34;;;;;;;16.75;12.57;;;;;;;22.46;33.96;93977.88;5017082;28;96633;-69
2021/08/26 14:53:00;;;;;;;13.05;11.32;;;;;;;22.43;34.40;93975.94;5016944;28;97692;-69
2021/08/26 14:55:25;;;;;;;13.20;11.57;;;;;;;22.56;33.91;94009.09;5016438;28;99847;-69
2021/08/26 14:57:51;;;;;;;14.50;11.63;;;;;;;22.60;33.83;94020.03;5016155;28;99232;-69
2021/08/26 15:00:16;;;;;;;14.98;11.48;;;;;;;22.62;33.88;93996.38;5016240;28;96831;-69
2021/08/26 15:02:42;;;;;;;12.60;10.85;;;;;;;22.40;33.94;93985.06;5016681;28;96998;-69
2021/08/26 15:05:08;;;;;;;13.85;10.98;;;;;;;22.54;33.79;93983.22;5016114;28;100320;-69
2021/08/26 15:07:33;;;;;;;13.13;10.77;;;;;;;22.53;34.07;93979.66;5015950;28;100233;-69
2021/08/26 15:10:00;;;;;;;13.70;11.13;;;;;;;22.49;33.76;93971.50;5015900;28;96953;-68
2021/08/26 15:12:29;;;;;;;13.75;10.82;;;;;;;22.39;33.98;93968.94;5016684;28;96689;-69
2021/08/26 15:14:54;;;;;;;13.80;10.63;;;;;;;22.39;34.15;93977.22;5016080;28;99991;-69
2021/08/26 15:17:20;;;;;;;13.98;11.05;;;;;;;22.49;33.83;93977.00;5015874;28;99357;-69
2021/08/26 15:19:47;;;;;;;13.57;11.38;;;;;;;22.47;33.79;93973.13;5016403;28;96875;-69
2021/08/26 15:22:12;;;;;;;15.00;10.70;;;;;;;22.33;33.93;93966.72;4998503;28;97002;-69
2021/08/26 15:24:38;;;;;;;12.95;10.13;;;;;;;22.35;34.13;93971.78;5015853;28;99439;-69
2021/08/26 15:27:03;;;;;;;12.50;10.45;;;;;;;22.35;34.20;93971.78;5015955;28;99903;-69
2021/08/26 15:29:29;;;;;;;13.60;10.43;;;;;;;22.36;33.79;93974.13;5016348;28;97015;-69
2021/08/26 15:31:56;;;;;;;11.48;9.73;;;;;;;22.33;33.96;93965.94;5016061;28;96831;-69
2021/08/26 15:34:21;;;;;;;13.73;10.40;;;;;;;22.32;34.02;93959.69;5015280;28;99031;-69
2021/08/26 15:36:47;;;;;;;12.30;9.40;;;;;;;22.27;33.90;93962.16;5015480;28;99742;-69
2021/08/26 15:39:12;;;;;;;11.32;9.55;;;;;;;22.38;33.63;93954.44;5016366;28;96966;-69
2021/08/26 15:41:38;;;;;;;12.93;10.10;;;;;;;22.27;33.70;93962.16;5016359;28;97024;-68
2021/08/26 15:44:06;;;;;;;14.02;10.18;;;;;;;22.23;33.99;93964.19;5015443;28;99788;-68
2021/08/26 15:46:33;;;;;;;11.68;9.77;;;;;;;22.24;33.81;93955.53;5015309;28;99517;-69
2021/08/26 15:48:59;;;;;;;11.82;9.40;;;;;;;22.24;33.59;93957.50;5016179;28;96879;-69
2021/08/26 15:51:27;;;;;;;10.95;9.27;;;;;;;22.20;33.73;93958.34;5016347;28;96919;-68
2021/08/26 15:56:40;;;;;;;11.95;10.38;;;;;;;22.32;33.87;93950.63;5014310;28;97088;-68
2021/08/26 15:59:10;;;;;;;11.02;9.40;;;;;;;22.21;34.23;93962.66;5015470;28;96797;-68
2021/08/26 16:01:37;;;;;;;10.70;9.10;;;;;;;22.19;34.20;93954.06;5015799;28;96744;-68
2021/08/26 16:04:03;;;;;;;11.02;8.85;;;;;;;22.13;34.56;93955.75;5015165;28;99925;-68
2021/08/26 16:06:28;;;;;;;12.13;9.15;;;;;;;22.15;34.54;93961.59;5015613;28;99556;-69
2021/08/26 16:08:55;;;;;;;11.48;9.25;;;;;;;22.15;34.47;93952.59;5015144;28;97026;-68
2021/08/26 16:11:21;;;;;;;12.38;9.80;;;;;;;22.27;34.39;93942.91;5015674;28;96982;-68
2021/08/26 16:13:49;;;;;;;11.60;9.27;;;;;;;22.26;34.70;93944.09;5015283;28;99796;-68
2021/08/26 16:16:14;;;;;;;13.02;9.23;;;;;;;22.13;35.09;93933.75;5015588;28;99487;-69
2021/08/26 16:18:41;;;;;;;11.73;8.93;;;;;;;22.11;35.36;93938.91;5015417;28;96779;-69
2021/08/26 16:21:06;;;;;;;12.43;9.52;;;;;;;22.16;35.59;93938.41;5015572;28;96916;-69
2021/08/26 16:23:32;;;;;;;12.90;9.13;;;;;;;22.05;35.89;93932.38;5014842;28;99600;-69
2021/08/26 16:25:57;;;;;;;11.18;8.98;;;;;;;22.06;35.91;93936.69;5015076;28;99255;-69
2021/08/26 16:28:23;;;;;;;10.75;8.90;;;;;;;21.97;36.20;93936.47;5015508;28;96878;-69
2021/08/26 16:30:48;;;;;;;10.98;8.68;;;;;;;22.04;36.09;93947.34;5015736;28;97303;-69
2021/08/26 16:33:14;;;;;;;10.02;8.55;;;;;;;22.14;36.05;93943.56;5014811;28;99178;-69
2021/08/26 16:35:40;;;;;;;10.00;8.90;;;;;;;22.13;36.19;93953.00;5015077;28;99543;-68
2021/08/26 16:38:06;;;;;;;10.05;8.95;;;;;;;22.08;36.33;93956.25;5015645;28;96903;-69
2021/08/26 16:40:31;;;;;;;11.32;8.82;;;;;;;22.16;36.19;93960.41;5015835;28;96659;-69
2021/08/26 16:42:57;;;;;;;10.77;8.20;;;;;;;22.15;36.38;93958.84;5014837;28;99414;-69
2021/08/26 16:45:22;;;;;;;10.98;8.65;;;;;;;22.13;36.44;93955.75;5014768;28;99383;-69
2021/08/26 16:47:47;;;;;;;10.75;8.35;;;;;;;22.14;36.44;93968.31;5014623;28;96774;-69
2021/08/26 16:50:14;;;;;;;11.63;8.93;;;;;;;22.17;36.40;93956.44;5015409;28;97031;-69
2021/08/26 16:52:39;;;;;;;10.45;8.18;;;;;;;22.19;36.41;93951.31;5014895;28;99384;-69
2021/08/26 16:55:06;;;;;;;10.02;8.18;;;;;;;22.21;36.30;93951.66;5014999;28;99901;-69
2021/08/26 16:57:31;;;;;;;11.43;8.40;;;;;;;22.10;36.63;93955.84;5015402;28;96649;-69
2021/08/26 16:59:57;;;;;;;11.38;8.35;;;;;;;22.19;36.50;93965.06;5014923;28;97012;-69
2021/08/26 17:02:22;;;;;;;9.93;7.93;;;;;;;22.10;36.62;93967.59;5014431;28;99630;-69
2021/08/26 17:04:48;;;;;;;11.82;8.73;;;;;;;22.15;36.48;93944.34;5015004;28;99344;-69
2021/08/26 17:07:13;;;;;;;10.05;8.90;;;;;;;22.23;36.55;93942.19;5015098;28;96841;-69
2021/08/26 17:09:39;;;;;;;10.25;8.48;;;;;;;22.16;36.61;93949.41;5014702;28;97003;-68
2021/08/26 17:12:05;;;;;;;10.02;8.57;;;;;;;22.23;36.67;93947.69;5014175;28;99548;-68
2021/08/26 17:14:30;;;;;;;11.18;8.40;;;;;;;22.19;36.85;93932.03;5188243;22;99379;-69
2021/08/26 17:16:56;;;;;;;10.18;8.25;;;;;;;22.46;36.88;93916.53;4906906;28;96820;-68
2021/08/26 17:19:21;;;;;;;9.65;8.35;;;;;;;22.59;36.85;93922.16;4916572;28;96935;-69
2021/08/26 17:21:47;;;;;;;9.05;7.88;;;;;;;22.73;37.07;93923.78;4917660;28;99331;-66
2021/08/26 17:24:12;;;;;;;10.77;8.20;;;;;;;22.84;37.01;93931.78;4919493;28;99188;-66
2021/08/26 17:26:38;;;;;;;10.80;8.00;;;;;;;22.94;37.33;93936.25;4919995;28;96782;-67
2021/08/26 17:29:03;;;;;;;10.48;8.00;;;;;;;23.05;37.16;93944.22;4919884;28;97034;-71
2021/08/26 17:31:29;;;;;;;9.10;7.82;;;;;;;23.14;37.39;93924.34;4919449;28;99609;-65
2021/08/26 17:33:56;;;;;;;9.48;7.60;;;;;;;23.23;37.60;93905.25;4919378;28;99447;-69
2021/08/26 17:36:22;;;;;;;9.73;8.18;;;;;;;23.29;37.95;93920.00;4919215;28;96740;-68
2021/08/26 17:38:47;;;;;;;10.35;7.75;;;;;;;23.37;37.97;93918.63;4919651;28;96900;-71
2021/08/26 17:41:13;;;;;;;10.15;8.23;;;;;;;23.46;38.39;93925.47;4918949;28;99571;-70
2021/08/26 17:43:38;;;;;;;9.10;8.00;;;;;;;23.55;38.71;93925.63;4917397;28;99913;-70
2021/08/26 17:46:03;;;;;;;11.50;7.65;;;;;;;23.63;39.19;93921.47;4919641;28;96619;-66
2021/08/26 17:48:30;;;;;;;19.55;9.07;;;;;;;23.72;40.38;93928.31;4919046;28;96938;-69
2021/08/26 17:50:56;;;;;;;16.00;10.73;;;;;;;23.78;47.07;93943.13;4919105;28;99409;-67
2021/08/26 17:53:22;;;;;;;52.15;43.00;;;;;;;23.85;51.99;93945.66;4919061;28;99267;-66
2021/08/26 17:55:48;;;;;;;41.30;36.75;;;;;;;23.90;53.32;93955.38;4919366;28;97855;-66
2021/08/26 17:58:15;;;;;;;44.85;39.95;;;;;;;23.84;55.11;93944.13;4918767;28;96974;-66
2021/08/26 18:00:41;;;;;;;46.95;41.83;;;;;;;23.87;55.70;93957.03;4918126;28;99850;-64
2021/08/26 18:03:06;;;;;;;35.55;29.30;;;;;;;23.79;56.05;93961.22;4918451;28;98879;-66
2021/08/26 18:05:32;;;;;;;34.65;21.27;;;;;;;23.85;56.83;93970.47;4919431;28;96802;-69
2021/08/26 18:07:58;;;;;;;22.85;18.30;;;;;;;23.88;56.63;93980.63;4918933;28;97054;-68
2021/08/26 18:10:25;;;;;;;22.33;15.40;;;;;;;23.86;56.95;93999.59;4918558;28;99178;-69
2021/08/26 18:12:51;;;;;;;18.75;14.02;;;;;;;23.88;57.38;94001.94;4917834;28;99928;-67
2021/08/26 18:15:16;;;;;;;19.77;14.50;;;;;;;23.88;57.08;94002.69;4918147;28;96835;-69
2021/08/26 18:17:42;;;;;;;19.52;15.00;;;;;;;23.87;57.37;93992.88;4919415;28;96954;-67
2021/08/26 18:20:07;;;;;;;48.33;40.40;;;;;;;23.89;56.79;93998.72;4918194;28;99340;-65
2021/08/26 18:22:33;;;;;;;50.63;40.58;;;;;;;23.89;56.85;94004.22;4918506;28;99579;-66
2021/08/26 18:24:58;;;;;;;60.60;44.95;;;;;;;23.87;57.40;94000.38;4918550;28;96729;-69
2021/08/26 18:27:24;;;;;;;66.28;52.67;;;;;;;23.83;58.03;94006.00;4918473;28;96895;-67
2021/08/26 18:29:49;;;;;;;54.55;45.53;;;;;;;23.81;57.36;93991.88;4918316;28;98120;-66
2021/08/26 18:32:15;;;;;;;45.13;36.38;;;;;;;23.89;56.92;93992.44;4917758;28;99497;-71
2021/08/26 18:34:40;;;;;;;32.22;24.83;;;;;;;23.98;57.05;94007.16;4918696;28;96777;-69
2021/08/26 18:37:06;;;;;;;45.00;30.85;;;;;;;23.96;57.44;94012.31;4918678;28;96932;-68
2021/08/26 18:39:31;;;;;;;71.20;44.55;;;;;;;23.96;57.47;94004.03;4916901;28;99335;-66
2021/08/26 18:41:57;;;;;;;54.05;37.60;;;;;;;24.06;57.14;94004.22;4917955;28;99048;-68
2021/08/26 18:44:22;;;;;;;58.33;43.60;;;;;;;23.98;57.57;94003.63;4918157;28;96821;-67
2021/08/26 18:46:48;;;;;;;62.72;52.00;;;;;;;24.01;57.50;94005.53;4918575;28;96821;-69
2021/08/26 18:49:13;;;;;;;43.80;34.42;;;;;;;24.05;57.40;93999.91;4917572;28;99469;-65
2021/08/26 18:51:39;;;;;;;31.92;23.23;;;;;;;24.04;57.76;94003.88;4917752;28;99573;-67
2021/08/26 18:54:04;;;;;;;24.85;18.33;;;;;;;23.96;58.90;94006.78;4918517;28;96690;-64
2021/08/26 18:56:30;;;;;;;23.50;16.73;;;;;;;23.94;59.34;93998.19;4917939;28;96968;-67